Time;durP1;ratioP1;P1;durP2;ratioP2;P2;SDS_P1;SDS_P2;PMS_P1;PMS_P2;Temp;Humidity;BMP_temperature;BMP_pressure;BME280_temperature;BME280_humidity;BME280_pressure;Samples;Min_cycle;Max_cycle;Signal;HPM_P1;HPM_P2
2023/12/17 00:01:26;;;;;;;;;;;12.80;65.20;;;11.48;65.30;102989.28;12242971;19;19923;-86
2023/12/17 00:05:27;;;;;;;;;;;12.80;65.10;;;11.37;65.19;102983.44;12248474;19;19915;-85
2023/12/17 00:09:29;;;;;;;;;;;12.80;65.10;;;11.48;65.27;103015.44;12243963;19;20023;-85
2023/12/17 00:13:31;;;;;;;;;;;12.80;65.00;;;11.43;65.29;102991.13;12247172;19;19918;-85
2023/12/17 00:17:32;;;;;;;;;;;12.80;65.00;;;11.44;65.17;103005.06;12246065;19;19937;-85
2023/12/17 00:21:34;;;;;;;;;;;12.80;64.90;;;11.55;65.28;103004.84;12242079;19;19926;-86
2023/12/17 00:25:35;;;;;;;;;;;12.90;65.00;;;11.55;65.31;103010.06;12245576;19;19923;-86
2023/12/17 00:29:37;;;;;;;;;;;12.90;65.10;;;11.53;65.11;103015.34;12247576;19;19942;-86
2023/12/17 00:33:38;;;;;;;;;;;12.90;65.10;;;11.53;65.23;103002.28;12257843;19;20598;-86
2023/12/17 00:37:40;;;;;;;;;;;12.90;65.00;;;11.58;65.07;102991.69;12258904;19;19931;-86
2023/12/17 00:41:41;;;;;;;;;;;12.90;64.90;;;11.54;65.26;102985.66;12254561;19;19925;-86
2023/12/17 00:45:43;;;;;;;;;;;12.90;65.00;;;11.54;65.22;102987.44;12257814;19;19915;-85
2023/12/17 00:49:44;;;;;;;;;;;12.90;65.00;;;11.44;65.08;102964.06;12250528;19;19922;-86
2023/12/17 00:53:46;;;;;;;;;;;13.10;65.10;;;11.60;65.22;102987.28;12254770;19;19923;-86
2023/12/17 00:57:47;;;;;;;;;;;12.90;65.00;;;11.58;65.16;102981.22;12256108;19;20091;-86
2023/12/17 01:01:50;;;;;;;;;;;12.90;64.90;;;11.58;65.05;102966.34;12252442;19;19936;-86
2023/12/17 01:05:52;;;;;;;;;;;12.90;64.90;;;11.62;65.19;102975.03;12255266;19;19918;-86
2023/12/17 01:09:54;;;;;;;;;;;12.90;64.90;;;11.59;65.25;102981.19;12252523;19;19952;-86
2023/12/17 01:13:55;;;;;;;;;;;12.90;64.80;;;11.37;65.16;102957.28;12255295;19;19918;-86
2023/12/17 01:17:56;;;;;;;;;;;13.00;65.10;;;11.53;65.14;102983.94;12253648;19;19911;-86
2023/12/17 01:21:59;;;;;;;;;;;12.90;64.90;;;11.60;65.14;102987.28;12251074;19;19922;-86
2023/12/17 01:26:01;;;;;;;;;;;12.90;65.00;;;11.65;65.31;102996.75;12254798;19;20329;-86
2023/12/17 01:30:02;;;;;;;;;;;12.90;64.90;;;11.42;65.03;102965.88;12252926;19;19922;-86
2023/12/17 01:34:06;;;;;;;;;;;12.90;64.90;;;11.40;65.10;102966.81;12254519;19;19923;-86
2023/12/17 01:38:08;;;;;;;;;;;12.90;64.90;;;11.61;65.02;103010.81;12253261;19;19914;-86
2023/12/17 01:42:09;;;;;;;;;;;12.90;64.80;;;11.51;65.25;102976.13;12248852;19;19940;-86
2023/12/17 01:46:11;;;;;;;;;;;12.90;65.00;;;11.56;65.15;102991.72;12253616;19;19917;-86
2023/12/17 01:50:13;;;;;;;;;;;13.00;65.00;;;11.50;65.09;102982.25;12251752;19;19922;-86
2023/12/17 01:54:15;;;;;;;;;;;12.90;65.00;;;11.62;65.37;103001.19;12252645;19;20333;-86
2023/12/17 01:58:17;;;;;;;;;;;12.90;65.00;;;11.51;65.17;102973.50;12253751;19;19921;-86
2023/12/17 02:02:19;;;;;;;;;;;12.90;64.90;;;11.59;65.12;103009.97;12249895;19;19915;-86
2023/12/17 02:06:21;;;;;;;;;;;12.90;65.00;;;11.57;65.12;103016.13;12252809;19;19925;-86
2023/12/17 02:10:23;;;;;;;;;;;12.90;65.00;;;11.54;65.27;103018.81;12250204;19;19927;-86
2023/12/17 02:14:24;;;;;;;;;;;12.90;65.00;;;11.60;65.20;103019.53;12248370;19;19922;-86
2023/12/17 02:18:26;;;;;;;;;;;12.90;65.00;;;11.51;65.26;102999.66;12248456;19;20349;-86
2023/12/17 02:22:27;;;;;;;;;;;12.90;65.00;;;11.63;65.19;103027.31;12247165;19;19907;-86
2023/12/17 02:26:29;;;;;;;;;;;12.90;64.90;;;11.59;65.07;103016.97;12250250;19;20258;-86
2023/12/17 02:30:30;;;;;;;;;;;12.90;65.00;;;11.60;65.24;103021.28;12246203;19;19978;-86
2023/12/17 02:34:32;;;;;;;;;;;12.90;65.00;;;11.61;65.08;103028.25;12252742;19;19915;-86
2023/12/17 02:38:34;;;;;;;;;;;12.90;65.00;;;11.53;65.00;103010.13;12251218;19;20314;-86
2023/12/17 02:42:35;;;;;;;;;;;12.90;65.00;;;11.55;65.08;103012.69;12248588;19;19919;-86
2023/12/17 02:46:37;;;;;;;;;;;12.90;65.10;;;11.46;65.16;102992.81;12249084;19;19974;-86
2023/12/17 02:50:39;;;;;;;;;;;12.90;65.10;;;11.54;65.16;103000.50;12247475;19;19922;-86
2023/12/17 02:54:40;;;;;;;;;;;12.90;65.10;;;11.49;65.23;102983.13;12251971;19;19922;-86
2023/12/17 02:58:42;;;;;;;;;;;12.90;65.10;;;11.54;65.28;102990.91;12251723;19;19919;-86
2023/12/17 03:02:43;;;;;;;;;;;12.90;65.10;;;11.46;65.31;102987.59;12250449;19;19918;-86
2023/12/17 03:06:45;;;;;;;;;;;13.10;65.40;;;11.59;65.36;103004.75;12248914;19;19938;-86
2023/12/17 03:10:47;;;;;;;;;;;12.90;65.30;;;11.58;65.26;102991.69;12248655;19;20329;-86
2023/12/17 03:14:48;;;;;;;;;;;12.90;65.30;;;11.63;65.05;102987.19;12248737;19;20325;-86
2023/12/17 03:18:51;;;;;;;;;;;12.90;65.30;;;11.59;65.29;102978.56;12248342;19;19919;-86
2023/12/17 03:22:52;;;;;;;;;;;12.90;65.20;;;11.61;65.21;102975.91;12247849;19;20258;-86
2023/12/17 03:26:54;;;;;;;;;;;12.90;65.20;;;11.56;65.28;102983.88;12247462;19;19927;-86
2023/12/17 03:30:56;;;;;;;;;;;13.10;65.40;;;11.63;65.16;102987.19;12245745;19;19919;-86
2023/12/17 03:34:57;;;;;;;;;;;12.90;65.20;;;11.62;65.14;102994.19;12246533;19;19919;-86
2023/12/17 03:38:59;;;;;;;;;;;12.90;65.20;;;11.61;65.27;102986.38;12248315;19;19955;-86
2023/12/17 03:43:01;;;;;;;;;;;12.90;65.30;;;11.58;65.12;102968.97;12246431;19;19979;-86
2023/12/17 03:47:03;;;;;;;;;;;13.00;65.40;;;11.59;65.28;102964.63;12245048;19;19914;-86
2023/12/17 03:51:04;;;;;;;;;;;13.00;65.40;;;11.56;65.17;102956.81;12244770;19;19915;-86
2023/12/17 03:55:07;;;;;;;;;;;13.00;65.30;;;11.70;65.23;102992.25;12247092;19;20016;-86
2023/12/17 03:59:08;;;;;;;;;;;13.00;65.30;;;11.66;65.17;102979.28;12246318;19;19915;-86
2023/12/17 04:03:10;;;;;;;;;;;13.00;65.30;;;11.23;65.02;102901.78;12244439;19;20321;-86
2023/12/17 04:07:12;;;;;;;;;;;13.00;65.30;;;11.68;65.22;102978.34;12245338;19;19915;-86
2023/12/17 04:11:38;;;;;;;;;;;13.00;65.20;;;11.68;65.24;102988.81;12244069;19;19951;-86
2023/12/17 04:15:40;;;;;;;;;;;13.00;65.30;;;11.63;65.16;102987.19;12246692;19;19986;-86
2023/12/17 04:19:42;;;;;;;;;;;13.00;65.30;;;11.63;65.10;102990.66;12244557;19;19923;-86
2023/12/17 04:23:44;;;;;;;;;;;12.90;65.30;;;11.66;65.22;102990.59;12245242;19;19911;-86
2023/12/17 04:27:46;;;;;;;;;;;13.00;65.30;;;11.69;65.11;102989.66;12245347;19;19951;-86
2023/12/17 04:31:47;;;;;;;;;;;12.90;65.20;;;11.65;65.00;102975.81;12243451;19;19918;-86
2023/12/17 04:35:48;;;;;;;;;;;13.00;65.30;;;11.62;65.15;102967.16;12244550;19;19930;-86
2023/12/17 04:39:50;;;;;;;;;;;12.90;65.10;;;11.54;65.18;102951.66;12243302;19;19927;-86
2023/12/17 04:43:52;;;;;;;;;;;13.00;65.30;;;11.48;65.15;102944.81;12241556;19;19926;-86
2023/12/17 04:47:55;;;;;;;;;;;12.90;65.30;;;11.70;65.27;102976.56;12244067;19;19974;-86
2023/12/17 04:51:56;;;;;;;;;;;13.00;65.40;;;11.60;65.17;102956.72;12241938;19;19923;-86
2023/12/17 04:55:58;;;;;;;;;;;13.00;65.30;;;11.44;64.98;102924.81;12246029;19;19911;-86
2023/12/17 05:00:01;;;;;;;;;;;13.00;65.30;;;11.71;65.20;102975.66;12243115;19;19922;-88
2023/12/17 05:04:03;;;;;;;;;;;13.00;65.30;;;11.50;65.02;102940.41;12244383;19;19931;-86
2023/12/17 05:08:05;;;;;;;;;;;13.00;65.40;;;11.72;64.99;102973.91;12242228;19;19914;-86
2023/12/17 05:12:06;;;;;;;;;;;13.00;65.40;;;11.69;65.13;102974.84;12240014;19;19929;-86
2023/12/17 05:16:08;;;;;;;;;;;13.00;65.40;;;11.67;65.21;102968.78;12250200;19;19915;-86
2023/12/17 05:20:09;;;;;;;;;;;13.00;65.40;;;11.66;65.08;102959.19;12253085;19;19927;-86
2023/12/17 05:24:11;;;;;;;;;;;13.00;65.40;;;11.66;65.04;102953.09;12253561;19;19944;-86
2023/12/17 05:28:12;;;;;;;;;;;13.00;65.40;;;11.37;65.10;102906.69;12252278;19;19946;-86
2023/12/17 05:32:14;;;;;;;;;;;13.00;65.40;;;11.73;65.07;102968.63;12249155;19;19915;-86
2023/12/17 05:36:16;;;;;;;;;;;13.00;65.40;;;11.62;65.10;102947.09;12254690;19;19921;-86
2023/12/17 05:40:17;;;;;;;;;;;13.00;65.40;;;11.47;65.16;102929.97;12253656;19;19919;-86
2023/12/17 05:44:18;;;;;;;;;;;13.00;65.30;;;11.65;65.08;102964.47;12253771;19;19974;-86
2023/12/17 05:48:20;;;;;;;;;;;13.10;65.50;;;11.75;65.11;102971.22;12252033;19;19951;-86
2023/12/17 05:52:22;;;;;;;;;;;13.10;65.50;;;11.59;65.05;102943.69;12248015;19;19919;-86
2023/12/17 05:56:24;;;;;;;;;;;13.10;65.40;;;11.77;65.12;102976.41;12252470;19;19926;-86
2023/12/17 06:00:25;;;;;;;;;;;13.10;65.40;;;11.80;65.18;102984.19;12249827;19;19931;-86
2023/12/17 06:04:27;;;;;;;;;;;13.10;65.40;;;11.78;64.99;102973.75;12251932;19;19911;-86
2023/12/17 06:08:29;;;;;;;;;;;13.10;65.40;;;11.78;64.98;102970.28;12251210;19;19924;-86
2023/12/17 06:12:30;;;;;;;;;;;13.10;65.40;;;11.67;65.07;102960.94;12248127;19;20329;-86
2023/12/17 06:16:32;;;;;;;;;;;13.10;65.30;;;11.79;65.08;102979.84;12250025;19;19967;-86
2023/12/17 06:20:33;;;;;;;;;;;13.10;65.30;;;11.77;64.99;102982.50;12250200;19;20263;-86
2023/12/17 06:24:35;;;;;;;;;;;13.10;65.30;;;11.78;64.96;102991.22;12252071;19;19926;-86
2023/12/17 06:28:37;;;;;;;;;;;13.00;65.20;;;11.74;65.04;102979.94;12250611;19;19910;-86
2023/12/17 06:32:40;;;;;;;;;;;13.20;65.30;;;11.67;65.04;102971.41;12246192;19;19934;-86
2023/12/17 06:36:42;;;;;;;;;;;13.00;65.20;;;11.63;65.19;102963.66;12250453;19;19915;-86
2023/12/17 06:40:49;;;;;;;;;;;13.00;65.20;;;11.72;65.16;102984.38;12245327;19;19931;-87
2023/12/17 06:44:50;;;;;;;;;;;13.00;65.20;;;11.73;65.12;102984.34;12245746;19;19919;-86
2023/12/17 06:48:52;;;;;;;;;;;13.00;65.20;;;11.72;64.98;102985.25;12249406;19;19917;-86
2023/12/17 06:52:53;;;;;;;;;;;13.00;65.20;;;11.69;65.24;102990.56;12250343;19;19915;-86
2023/12/17 06:56:55;;;;;;;;;;;13.00;65.20;;;11.73;65.08;102991.34;12248829;19;19910;-86
2023/12/17 07:00:57;;;;;;;;;;;13.00;65.30;;;11.74;65.00;103011.34;12248468;19;19938;-86
2023/12/17 07:04:59;;;;;;;;;;;13.00;65.30;;;11.73;64.97;103014.88;12244483;19;19925;-85
2023/12/17 07:09:00;;;;;;;;;;;13.00;65.30;;;11.73;65.10;103005.28;12249042;19;19925;-86
2023/12/17 07:13:03;;;;;;;;;;;13.00;65.20;;;11.72;65.00;103006.19;12248763;19;19923;-85
2023/12/17 07:17:05;;;;;;;;;;;13.00;65.20;;;11.41;65.10;102953.69;12248516;19;19911;-85
2023/12/17 07:21:06;;;;;;;;;;;13.00;65.20;;;11.66;65.17;103001.06;12245899;19;19944;-85
2023/12/17 07:25:09;;;;;;;;;;;13.00;65.30;;;11.51;65.10;102973.50;12248603;19;19919;-85
2023/12/17 07:29:10;;;;;;;;;;;13.00;65.20;;;11.72;65.04;103003.56;12247262;19;19919;-86
2023/12/17 07:33:11;;;;;;;;;;;13.00;65.20;;;11.51;64.95;102964.81;12248451;19;19935;-86
2023/12/17 07:37:13;;;;;;;;;;;13.00;65.10;;;11.62;65.22;102973.25;12249654;19;19918;-86
2023/12/17 07:41:14;;;;;;;;;;;13.00;65.20;;;11.72;65.19;102995.72;12244978;19;19915;-88
2023/12/17 07:45:16;;;;;;;;;;;13.00;65.20;;;11.72;65.15;102994.84;12247443;19;19979;-86
2023/12/17 07:49:18;;;;;;;;;;;13.00;65.20;;;11.60;65.14;102984.66;12245315;19;20269;-88
2023/12/17 07:53:19;;;;;;;;;;;13.00;65.20;;;11.69;65.08;103006.25;12245766;19;19915;-88
2023/12/17 07:57:21;;;;;;;;;;;13.00;65.10;;;11.69;64.92;102997.50;12245147;19;19943;-88
2023/12/17 08:01:29;;;;;;;;;;;13.00;65.10;;;11.72;65.04;103005.31;12242629;19;19922;-87
2023/12/17 08:05:31;;;;;;;;;;;13.00;65.10;;;11.75;65.06;103013.09;12244623;19;19919;-87
2023/12/17 08:09:35;;;;;;;;;;;13.10;65.30;;;11.69;65.14;102998.41;12242596;19;19923;-87
2023/12/17 08:13:36;;;;;;;;;;;13.00;65.10;;;11.77;65.08;103024.38;12245620;19;19915;-86
2023/12/17 08:17:37;;;;;;;;;;;13.00;65.00;;;11.79;65.13;103026.97;12245516;19;19922;-86
2023/12/17 08:21:39;;;;;;;;;;;13.10;65.10;;;11.69;65.05;103013.22;12236074;19;20335;-86
2023/12/17 08:25:40;;;;;;;;;;;13.10;65.10;;;11.72;65.01;103015.78;12245441;19;19934;-88
2023/12/17 08:29:47;;;;;;;;;;;13.10;65.10;;;11.78;65.08;103020.03;12241870;19;19925;-87
2023/12/17 08:33:52;;;;;;;;;;;13.10;65.00;;;11.63;65.02;102985.44;12246218;19;19946;-86
2023/12/17 08:37:59;;;;;;;;;;;13.10;65.00;;;11.74;65.12;102993.88;12245609;19;19966;-86
2023/12/17 08:42:01;;;;;;;;;;;13.10;65.10;;;11.79;65.08;102996.41;12241831;19;20499;-86
2023/12/17 08:46:02;;;;;;;;;;;13.10;65.10;;;11.79;65.06;102993.78;12246033;19;19922;-85
2023/12/17 08:50:04;;;;;;;;;;;13.10;65.00;;;11.84;65.09;103006.78;12243967;19;19919;-86
2023/12/17 08:54:06;;;;;;;;;;;13.10;65.00;;;11.77;65.09;102989.50;12255216;19;19911;-85
2023/12/17 08:58:07;;;;;;;;;;;13.10;65.00;;;11.78;65.09;102993.84;12256292;19;19915;-85
2023/12/17 09:02:09;;;;;;;;;;;13.20;64.90;;;11.87;65.07;103006.75;12252250;19;20337;-85
2023/12/17 09:06:10;;;;;;;;;;;13.20;64.90;;;11.63;65.02;102963.66;12258514;19;19915;-85
2023/12/17 09:10:12;;;;;;;;;;;13.20;64.90;;;11.74;65.13;102996.50;12252187;19;19915;-85
2023/12/17 09:14:14;;;;;;;;;;;13.20;64.80;;;11.78;65.05;103012.19;12256895;19;20331;-85
2023/12/17 09:18:15;;;;;;;;;;;13.20;64.80;;;11.86;65.04;103012.88;12254589;19;19926;-86
2023/12/17 09:22:17;;;;;;;;;;;13.20;64.90;;;11.80;65.06;102998.16;12251795;19;19911;-85
2023/12/17 09:26:19;;;;;;;;;;;13.20;64.70;;;11.80;65.03;102995.53;12255524;19;19926;-87
2023/12/17 09:30:20;;;;;;;;;;;13.20;65.50;;;11.87;65.21;103004.97;12252160;19;19915;-86
2023/12/17 09:34:21;;;;;;;;;;;13.20;64.70;;;11.87;65.17;102991.88;12255491;19;19914;-88
2023/12/17 09:38:23;;;;;;;;;;;13.20;64.60;;;11.85;65.03;103006.72;12257814;19;19919;-87
2023/12/17 09:42:24;;;;;;;;;;;13.20;64.60;;;11.88;65.07;103014.56;12251299;19;19978;-87
2023/12/17 09:46:27;;;;;;;;;;;13.30;64.70;;;11.85;65.09;103001.50;12254453;19;19918;-87
2023/12/17 09:50:29;;;;;;;;;;;13.30;64.70;;;11.93;65.16;103010.06;12252136;19;19915;-88
2023/12/17 09:54:30;;;;;;;;;;;13.30;64.70;;;11.74;65.05;102974.72;12253347;19;19921;-87
2023/12/17 09:58:32;;;;;;;;;;;13.30;64.70;;;11.94;65.05;102990.00;12253366;19;19919;-87
2023/12/17 10:02:34;;;;;;;;;;;13.30;64.80;;;12.00;65.03;102995.06;12247770;19;19925;-87
2023/12/17 10:06:36;;;;;;;;;;;13.30;64.60;;;11.93;65.01;102983.03;12253500;19;20329;-87
2023/12/17 10:10:37;;;;;;;;;;;13.30;64.50;;;11.89;64.95;102969.16;12252981;19;19923;-87
2023/12/17 10:14:40;;;;;;;;;;;13.30;64.70;;;11.95;65.14;102966.38;12252749;19;19974;-87
2023/12/17 10:18:47;;;;;;;;;;;13.40;64.60;;;12.09;64.98;102983.50;12250898;19;20338;-87
2023/12/17 10:22:58;;;;;;;;;;;13.30;64.50;;;12.10;65.03;102969.53;12252970;19;19932;-87
2023/12/17 10:27:00;;;;;;;;;;;13.40;64.60;;;12.05;65.01;102955.69;12252922;19;19918;-87
2023/12/17 10:31:03;;;;;;;;;;;13.50;64.40;;;11.86;65.03;102914.25;12252047;19;20279;-87
2023/12/17 10:35:05;;;;;;;;;;;13.40;63.80;;;11.91;64.88;102928.09;12251695;19;19925;-87
2023/12/17 10:39:08;;;;;;;;;;;13.40;64.30;;;11.92;65.15;102915.84;12251524;19;20000;-88
2023/12/17 10:43:12;;;;;;;;;;;13.40;64.30;;;12.12;65.08;102947.63;12251648;19;20325;-88
2023/12/17 10:47:18;;;;;;;;;;;13.50;64.10;;;11.89;64.96;102895.84;12250724;19;19919;-87
2023/12/17 10:51:20;;;;;;;;;;;13.50;64.30;;;12.13;65.03;102932.78;12246058;19;19942;-86
2023/12/17 10:55:22;;;;;;;;;;;13.50;64.10;;;12.11;65.11;102922.31;12250248;19;19915;-86
2023/12/17 10:59:27;;;;;;;;;;;13.60;64.30;;;12.19;65.06;102911.66;12249522;19;19923;-86
2023/12/17 11:03:28;;;;;;;;;;;13.50;63.70;;;12.13;64.93;102907.44;12248939;19;19914;-86
2023/12/17 11:07:30;;;;;;;;;;;13.50;63.00;;;11.99;65.01;102870.28;12244940;19;20346;-86
2023/12/17 11:11:32;;;;;;;;;;;13.50;63.40;;;12.14;65.06;102887.34;12246449;19;19919;-87
2023/12/17 11:15:33;;;;;;;;;;;13.50;64.30;;;12.18;65.14;102895.09;12246879;19;19974;-87
2023/12/17 11:19:35;;;;;;;;;;;13.60;64.10;;;12.26;65.18;102894.88;12249891;19;20317;-87
2023/12/17 11:23:37;;;;;;;;;;;13.60;63.80;;;12.21;65.04;102878.41;12247233;19;20408;-87
2023/12/17 11:27:39;;;;;;;;;;;13.60;64.00;;;11.97;64.99;102839.81;12249031;19;19960;-88
2023/12/17 11:31:41;;;;;;;;;;;13.60;63.60;;;12.24;65.11;102874.88;12243346;19;19932;-87
2023/12/17 11:35:42;;;;;;;;;;;13.60;63.60;;;12.25;65.04;102868.72;12248807;19;19943;-87
2023/12/17 11:39:45;;;;;;;;;;;13.60;63.70;;;12.28;65.04;102866.00;12244298;19;19942;-88
2023/12/17 11:43:47;;;;;;;;;;;13.70;63.50;;;11.99;64.95;102825.78;12245882;19;20257;-88
2023/12/17 11:47:49;;;;;;;;;;;13.70;63.80;;;12.10;65.03;102833.34;12246574;19;19919;-88
2023/12/17 11:51:51;;;;;;;;;;;13.80;62.90;;;12.23;65.08;102850.41;12244485;19;19914;-88
2023/12/17 11:55:59;;;;;;;;;;;13.70;63.60;;;12.38;65.11;102875.31;12249595;19;19915;-87
2023/12/17 12:00:00;;;;;;;;;;;13.70;63.40;;;12.33;65.01;102854.50;12244327;19;20703;-87
2023/12/17 12:04:01;;;;;;;;;;;13.70;63.80;;;12.01;64.99;102783.81;12246589;19;19922;-87
2023/12/17 12:08:03;;;;;;;;;;;13.80;64.10;;;12.04;64.94;102771.50;12245143;19;20338;-88
2023/12/17 12:12:26;;;;;;;;;;;13.80;63.60;;;12.24;64.97;102809.38;12242477;19;20337;-88
2023/12/17 12:16:36;;;;;;;;;;;13.80;63.60;;;12.35;65.04;102821.25;12246699;19;19930;-88
2023/12/17 12:20:38;;;;;;;;;;;13.80;63.60;;;12.37;64.96;102827.31;12243182;19;20340;-88
2023/12/17 12:24:39;;;;;;;;;;;13.80;63.80;;;12.44;64.96;102832.38;12252433;19;20250;-87
2023/12/17 12:28:41;;;;;;;;;;;13.80;63.80;;;12.48;64.85;102834.88;12257368;19;19919;-88
2023/12/17 12:32:42;;;;;;;;;;;13.80;63.70;;;12.55;64.86;102839.00;12255184;19;19923;-88
2023/12/17 12:36:45;;;;;;;;;;;13.90;63.90;;;12.36;64.87;102791.50;12258049;19;20596;-88
2023/12/17 12:40:48;;;;;;;;;;;13.90;63.90;;;12.59;64.85;102848.50;12255420;19;20313;-88
2023/12/17 12:44:50;;;;;;;;;;;13.90;63.90;;;12.58;64.90;102824.94;12257134;19;20330;-88
2023/12/17 12:48:54;;;;;;;;;;;13.90;63.80;;;12.60;64.83;102821.38;12253607;19;20253;-88
2023/12/17 12:52:55;;;;;;;;;;;13.90;63.70;;;12.55;64.87;102801.44;12250767;19;19929;-88
2023/12/17 12:56:57;;;;;;;;;;;13.90;63.60;;;12.56;64.83;102784.84;12256320;19;20008;-88
2023/12/17 13:00:58;;;;;;;;;;;14.00;63.70;;;12.60;64.85;102789.06;12252528;19;19925;-88
2023/12/17 13:05:00;;;;;;;;;;;14.00;63.60;;;12.44;64.85;102770.31;12255094;19;19925;-87
2023/12/17 13:09:04;;;;;;;;;;;13.90;63.60;;;12.57;64.73;102768.19;12255929;19;19925;-86
2023/12/17 13:13:06;;;;;;;;;;;14.00;63.50;;;12.57;64.86;102771.69;12258639;19;20329;-85
2023/12/17 13:17:08;;;;;;;;;;;14.00;63.40;;;12.58;64.70;102773.41;12259135;19;19922;-88
2023/12/17 13:21:10;;;;;;;;;;;14.10;63.60;;;12.56;64.82;102763.88;12256774;19;19911;-86
2023/12/17 13:25:11;;;;;;;;;;;14.00;64.20;;;12.46;64.72;102751.97;12256374;19;19921;-85
2023/12/17 13:29:13;;;;;;;;;;;14.00;63.40;;;12.70;64.75;102793.13;12253083;19;19921;-87
2023/12/17 13:33:15;;;;;;;;;;;14.00;63.50;;;12.72;64.71;102807.06;12255654;19;19918;-87
2023/12/17 13:37:16;;;;;;;;;;;14.00;63.50;;;12.70;64.66;102789.66;12253252;19;20312;-87
2023/12/17 13:41:18;;;;;;;;;;;14.00;63.40;;;12.59;64.69;102764.63;12251926;19;19910;-86
2023/12/17 13:45:19;;;;;;;;;;;14.00;63.30;;;12.50;64.69;102746.59;12254381;19;20348;-87
2023/12/17 13:49:21;;;;;;;;;;;14.00;63.00;;;12.36;64.61;102719.91;12250669;19;19922;-87
2023/12/17 13:53:23;;;;;;;;;;;13.90;62.70;;;12.58;64.69;102772.53;12251174;19;19926;-87
2023/12/17 13:57:24;;;;;;;;;;;13.90;62.80;;;12.58;64.53;102772.53;12250628;19;20472;-86
2023/12/17 14:01:27;;;;;;;;;;;13.90;62.90;;;12.55;64.54;102770.00;12251444;19;19986;-87
2023/12/17 14:05:29;;;;;;;;;;;13.90;62.90;;;12.37;64.57;102740.84;12254035;19;19931;-86
2023/12/17 14:09:30;;;;;;;;;;;13.80;62.80;;;12.48;64.48;102755.41;12249903;19;19911;-86
2023/12/17 14:13:31;;;;;;;;;;;13.80;62.70;;;12.32;64.43;102737.50;12250557;19;20382;-86
2023/12/17 14:17:33;;;;;;;;;;;14.00;63.00;;;12.46;64.55;102762.44;12253837;19;19946;-86
2023/12/17 14:21:36;;;;;;;;;;;13.80;62.90;;;12.42;64.55;102761.66;12250021;19;19915;-86
2023/12/17 14:25:38;;;;;;;;;;;13.80;63.00;;;12.35;64.42;102750.50;12253832;19;19978;-87
2023/12/17 14:29:39;;;;;;;;;;;13.70;62.70;;;12.40;64.32;102759.09;12248795;19;19930;-86
2023/12/17 14:33:41;;;;;;;;;;;13.70;62.70;;;12.37;64.40;102758.34;12251940;19;20046;-86
2023/12/17 14:37:43;;;;;;;;;;;13.60;62.60;;;12.31;64.39;102758.50;12250221;19;19914;-87
2023/12/17 14:41:45;;;;;;;;;;;13.60;62.50;;;12.07;64.30;102732.16;12247388;19;19926;-88
2023/12/17 14:45:47;;;;;;;;;;;13.50;62.50;;;12.26;64.20;102777.00;12251738;19;20336;-88
2023/12/17 14:49:49;;;;;;;;;;;13.50;62.60;;;12.19;64.30;102751.88;12246919;19;19945;-87
2023/12/17 14:53:50;;;;;;;;;;;13.50;62.80;;;12.15;64.21;102758.97;12251959;19;19965;-87
2023/12/17 14:57:52;;;;;;;;;;;13.50;62.80;;;12.17;64.19;102756.28;12251065;19;20020;-88
2023/12/17 15:01:54;;;;;;;;;;;13.40;62.60;;;12.13;64.22;102752.06;12246816;19;19919;-86
2023/12/17 15:05:55;;;;;;;;;;;13.40;62.60;;;12.05;64.31;102735.72;12249444;19;20312;-86
2023/12/17 15:10:01;;;;;;;;;;;13.30;62.50;;;12.07;64.14;102745.25;12246450;19;19927;-86
2023/12/17 15:14:02;;;;;;;;;;;13.30;62.60;;;11.97;64.04;102724.59;12250226;19;19915;-85
2023/12/17 15:18:04;;;;;;;;;;;13.20;62.30;;;11.87;64.20;102727.47;12250451;19;19986;-87
2023/12/17 15:22:05;;;;;;;;;;;13.20;62.50;;;11.92;64.25;102745.66;12242255;19;19947;-87
2023/12/17 15:26:07;;;;;;;;;;;13.20;62.40;;;11.80;64.04;102746.84;12245289;19;19959;-86
2023/12/17 15:30:09;;;;;;;;;;;13.10;62.20;;;11.79;64.19;102752.97;12241107;19;20344;-87
2023/12/17 15:34:10;;;;;;;;;;;13.00;62.30;;;11.73;64.11;102742.69;12244531;19;19915;-87
2023/12/17 15:38:12;;;;;;;;;;;12.90;62.30;;;11.51;64.11;102711.84;12243714;19;19942;-87
2023/12/17 15:42:13;;;;;;;;;;;12.90;62.50;;;11.56;64.24;102718.72;12239684;19;19934;-86
2023/12/17 15:46:22;;;;;;;;;;;13.00;62.60;;;11.44;64.24;102694.59;12243350;19;19932;-87
2023/12/17 15:50:23;;;;;;;;;;;12.90;62.40;;;11.57;64.13;102725.69;12238519;19;20381;-87
2023/12/17 15:54:25;;;;;;;;;;;12.80;62.30;;;11.45;64.04;102704.19;12244201;19;19914;-87
2023/12/17 15:58:27;;;;;;;;;;;12.80;61.90;;;11.24;64.19;102668.13;12240641;19;19915;-87
2023/12/17 16:02:28;;;;;;;;;;;12.70;62.10;;;11.44;63.97;102715.53;12218036;19;19907;-87
2023/12/17 16:06:30;;;;;;;;;;;12.70;62.20;;;11.23;64.13;102705.63;12243025;19;20384;-87
2023/12/17 16:10:35;;;;;;;;;;;12.60;62.10;;;11.15;64.15;102694.50;12237502;19;21317;-87
2023/12/17 16:14:37;;;;;;;;;;;12.60;62.30;;;11.31;64.07;102727.22;12244377;19;19923;-87
2023/12/17 16:18:39;;;;;;;;;;;12.50;62.20;;;11.27;64.12;102736.06;12243244;19;19930;-87
2023/12/17 16:22:42;;;;;;;;;;;12.50;62.20;;;11.16;64.14;102717.16;12234483;19;20291;-87
2023/12/17 16:26:44;;;;;;;;;;;12.40;62.10;;;11.18;64.06;102724.06;12243265;19;19919;-87
2023/12/17 16:30:45;;;;;;;;;;;12.40;62.20;;;11.04;64.12;102697.41;12239914;19;19922;-87
2023/12/17 16:34:47;;;;;;;;;;;12.40;62.10;;;11.00;64.14;102707.09;12240705;19;20287;-87
2023/12/17 16:38:52;;;;;;;;;;;12.30;62.20;;;10.97;64.18;102709.78;12241193;19;19915;-86
2023/12/17 16:42:53;;;;;;;;;;;12.30;62.20;;;10.84;64.10;102684.84;12241673;19;19914;-87
2023/12/17 16:46:55;;;;;;;;;;;12.20;62.20;;;10.91;64.19;102703.84;12238925;19;19931;-86
2023/12/17 16:50:57;;;;;;;;;;;12.20;62.10;;;10.75;64.10;102685.94;12240289;19;19939;-86
2023/12/17 16:54:58;;;;;;;;;;;12.20;62.10;;;10.91;64.21;102707.34;12240688;19;19919;-87
2023/12/17 16:59:00;;;;;;;;;;;12.10;62.00;;;10.62;64.04;102664.47;12241317;19;19934;-87
2023/12/17 17:03:01;;;;;;;;;;;12.10;62.20;;;10.80;64.03;102704.09;12239965;19;19926;-87
2023/12/17 17:07:03;;;;;;;;;;;12.00;62.20;;;10.63;64.16;102671.38;12240456;19;19915;-87
2023/12/17 17:11:05;;;;;;;;;;;12.00;62.30;;;10.62;64.21;102672.31;12242424;19;19919;-87
2023/12/17 17:15:08;;;;;;;;;;;12.00;62.40;;;10.76;64.13;102689.41;12251378;19;19932;-87
2023/12/17 17:19:09;;;;;;;;;;;11.90;62.40;;;10.73;64.01;102679.88;12252182;19;19923;-87
2023/12/17 17:23:11;;;;;;;;;;;11.90;62.30;;;10.62;63.99;102663.59;12249889;19;20448;-86
2023/12/17 17:27:13;;;;;;;;;;;11.90;62.20;;;10.44;63.95;102635.31;12248768;19;19926;-86
2023/12/17 17:31:15;;;;;;;;;;;11.80;61.80;;;10.49;63.95;102655.19;12248621;19;19936;-86
2023/12/17 17:35:16;;;;;;;;;;;11.80;61.80;;;10.48;64.09;102657.88;12255174;19;19926;-87
2023/12/17 17:39:20;;;;;;;;;;;11.80;61.90;;;10.41;64.04;102655.38;12251544;19;19919;-86
2023/12/17 17:43:21;;;;;;;;;;;11.70;62.00;;;10.47;64.06;102669.19;12255105;19;19936;-87
2023/12/17 17:47:23;;;;;;;;;;;11.70;62.00;;;10.33;63.94;102654.69;12254275;19;19919;-86
2023/12/17 17:51:25;;;;;;;;;;;11.60;61.80;;;10.36;64.08;102656.38;12249739;19;19923;-86
2023/12/17 17:55:28;;;;;;;;;;;11.60;61.80;;;10.19;64.10;102634.09;12252856;19;20264;-86
2023/12/17 17:59:29;;;;;;;;;;;11.60;61.80;;;10.30;64.10;102659.13;12252471;19;19922;-89
2023/12/17 18:03:31;;;;;;;;;;;11.50;61.80;;;10.08;64.20;102635.25;12253594;19;19982;-88
2023/12/17 18:07:32;;;;;;;;;;;11.50;62.00;;;9.95;64.09;102624.22;12252837;19;19948;-86